Terminal Aerodrome Forecast
Issued by NWS

Home | Current Version | Previous Version | Text Only | Print | Product List | Glossary On
Versions: 1 2 3 4 5 6 7 8 9 10 11 12 13 14
000
FTUS43 KICT 210500
TAFSLN
TAF
KSLN 210520Z 2106/2206 16004KT P6SM SKC
     FM211100 12004KT 5SM BR SKC
      TEMPO 2111/2115 2SM BR
     FM211500 14007KT P6SM SKC
     FM211700 17009KT P6SM SCT035=

USA.gov is the U.S. government's official web portal to all federal, state and local government web resources and services.